sensor_id;sensor_type;location;lat;lon;timestamp;pressure;altitude;pressure_sealevel;temperature;humidity
79586;BME280;69054;50.866;4.636;2023-12-20T00:01:18;101297.69;;;3.85;100.00
79586;BME280;69054;50.866;4.636;2023-12-20T00:03:43;101301.78;;;3.70;100.00
79586;BME280;69054;50.866;4.636;2023-12-20T00:06:09;101308.03;;;3.61;100.00
79586;BME280;69054;50.866;4.636;2023-12-20T00:08:35;101315.38;;;3.49;100.00
79586;BME280;69054;50.866;4.636;2023-12-20T00:11:00;101318.66;;;3.52;100.00
79586;BME280;69054;50.866;4.636;2023-12-20T00:13:26;101325.09;;;3.61;100.00
79586;BME280;69054;50.866;4.636;2023-12-20T00:15:51;101323.22;;;3.62;100.00
79586;BME280;69054;50.866;4.636;2023-12-20T00:18:17;101326.72;;;3.43;100.00
79586;BME280;69054;50.866;4.636;2023-12-20T00:20:42;101325.56;;;3.35;100.00
79586;BME280;69054;50.866;4.636;2023-12-20T00:23:08;101318.50;;;3.54;100.00
79586;BME280;69054;50.866;4.636;2023-12-20T00:25:34;101331.25;;;3.83;100.00
79586;BME280;69054;50.866;4.636;2023-12-20T00:28:00;101332.31;;;4.01;100.00
79586;BME280;69054;50.866;4.636;2023-12-20T00:30:25;101328.47;;;3.94;100.00
79586;BME280;69054;50.866;4.636;2023-12-20T00:32:51;101326.59;;;3.85;100.00
79586;BME280;69054;50.866;4.636;2023-12-20T00:35:17;101330.13;;;3.76;100.00
79586;BME280;69054;50.866;4.636;2023-12-20T00:37:43;101327.97;;;3.69;100.00
79586;BME280;69054;50.866;4.636;2023-12-20T00:40:09;101318.50;;;3.54;100.00
79586;BME280;69054;50.866;4.636;2023-12-20T00:42:35;101314.06;;;3.43;100.00
79586;BME280;69054;50.866;4.636;2023-12-20T00:45:01;101314.19;;;3.42;100.00
79586;BME280;69054;50.866;4.636;2023-12-20T00:47:27;101320.06;;;3.47;100.00
79586;BME280;69054;50.866;4.636;2023-12-20T00:49:53;101318.78;;;3.51;100.00
79586;BME280;69054;50.866;4.636;2023-12-20T00:52:18;101315.88;;;3.33;100.00
79586;BME280;69054;50.866;4.636;2023-12-20T00:54:44;101317.72;;;3.32;100.00
79586;BME280;69054;50.866;4.636;2023-12-20T00:57:10;101312.75;;;3.37;100.00
79586;BME280;69054;50.866;4.636;2023-12-20T00:59:36;101317.69;;;3.23;100.00
79586;BME280;69054;50.866;4.636;2023-12-20T01:02:01;101313.13;;;3.23;100.00
79586;BME280;69054;50.866;4.636;2023-12-20T01:04:27;101311.06;;;3.36;100.00
79586;BME280;69054;50.866;4.636;2023-12-20T01:06:52;101301.25;;;3.35;100.00
79586;BME280;69054;50.866;4.636;2023-12-20T01:09:18;101295.97;;;3.34;100.00
79586;BME280;69054;50.866;4.636;2023-12-20T01:11:44;101305.19;;;3.31;100.00
79586;BME280;69054;50.866;4.636;2023-12-20T01:14:09;101307.34;;;3.37;100.00
79586;BME280;69054;50.866;4.636;2023-12-20T01:16:35;101317.75;;;3.42;100.00
79586;BME280;69054;50.866;4.636;2023-12-20T01:19:00;101304.84;;;3.46;100.00
79586;BME280;69054;50.866;4.636;2023-12-20T01:21:26;101307.94;;;3.41;100.00
79586;BME280;69054;50.866;4.636;2023-12-20T01:23:51;101307.06;;;3.41;100.00
79586;BME280;69054;50.866;4.636;2023-12-20T01:26:16;101316.97;;;3.51;100.00
79586;BME280;69054;50.866;4.636;2023-12-20T01:28:42;101319.19;;;3.46;100.00
79586;BME280;69054;50.866;4.636;2023-12-20T01:31:08;101323.28;;;3.41;100.00
79586;BME280;69054;50.866;4.636;2023-12-20T01:33:34;101323.56;;;3.37;100.00
79586;BME280;69054;50.866;4.636;2023-12-20T01:35:59;101327.72;;;3.42;100.00
79586;BME280;69054;50.866;4.636;2023-12-20T01:38:25;101328.97;;;3.37;100.00
79586;BME280;69054;50.866;4.636;2023-12-20T01:40:50;101335.19;;;3.28;100.00
79586;BME280;69054;50.866;4.636;2023-12-20T01:43:16;101333.69;;;3.14;100.00
79586;BME280;69054;50.866;4.636;2023-12-20T01:45:41;101333.97;;;3.11;100.00
79586;BME280;69054;50.866;4.636;2023-12-20T01:48:08;101338.56;;;3.20;100.00
79586;BME280;69054;50.866;4.636;2023-12-20T01:50:35;101344.84;;;3.21;100.00
79586;BME280;69054;50.866;4.636;2023-12-20T01:53:03;101335.94;;;3.30;100.00
79586;BME280;69054;50.866;4.636;2023-12-20T01:55:33;101328.53;;;3.32;100.00
79586;BME280;69054;50.866;4.636;2023-12-20T01:58:00;101336.56;;;3.44;100.00
79586;BME280;69054;50.866;4.636;2023-12-20T02:00:27;101331.81;;;3.36;100.00
79586;BME280;69054;50.866;4.636;2023-12-20T02:02:54;101340.41;;;3.51;100.00
79586;BME280;69054;50.866;4.636;2023-12-20T02:05:21;101338.75;;;3.60;100.00
79586;BME280;69054;50.866;4.636;2023-12-20T02:07:47;101338.94;;;3.78;100.00
79586;BME280;69054;50.866;4.636;2023-12-20T02:10:12;101334.78;;;3.73;100.00
79586;BME280;69054;50.866;4.636;2023-12-20T02:12:38;101341.56;;;3.58;100.00
79586;BME280;69054;50.866;4.636;2023-12-20T02:15:04;101339.41;;;3.52;100.00
79586;BME280;69054;50.866;4.636;2023-12-20T02:17:31;101334.28;;;3.49;100.00
79586;BME280;69054;50.866;4.636;2023-12-20T02:19:57;101335.53;;;3.45;100.00
79586;BME280;69054;50.866;4.636;2023-12-20T02:22:22;101335.59;;;3.54;100.00
79586;BME280;69054;50.866;4.636;2023-12-20T02:24:47;101339.72;;;3.59;100.00
79586;BME280;69054;50.866;4.636;2023-12-20T02:27:15;101336.44;;;3.55;100.00
79586;BME280;69054;50.866;4.636;2023-12-20T02:29:43;101335.59;;;3.54;100.00
79586;BME280;69054;50.866;4.636;2023-12-20T02:32:08;101329.31;;;3.54;100.00
79586;BME280;69054;50.866;4.636;2023-12-20T02:34:34;101328.44;;;3.44;100.00
79586;BME280;69054;50.866;4.636;2023-12-20T02:36:59;101345.44;;;3.34;100.00
79586;BME280;69054;50.866;4.636;2023-12-20T02:39:25;101348.63;;;3.40;100.00
79586;BME280;69054;50.866;4.636;2023-12-20T02:41:50;101356.63;;;3.51;100.00
79586;BME280;69054;50.866;4.636;2023-12-20T02:44:16;101348.16;;;3.65;100.00
79586;BME280;69054;50.866;4.636;2023-12-20T02:46:41;101351.56;;;3.67;100.00
79586;BME280;69054;50.866;4.636;2023-12-20T02:49:07;101348.44;;;3.72;100.00
79586;BME280;69054;50.866;4.636;2023-12-20T02:51:32;101339.38;;;3.83;100.00
79586;BME280;69054;50.866;4.636;2023-12-20T02:53:58;101343.38;;;3.88;100.00
79586;BME280;69054;50.866;4.636;2023-12-20T02:56:23;101346.66;;;3.92;100.00
79586;BME280;69054;50.866;4.636;2023-12-20T02:58:49;101347.66;;;3.91;100.00
79586;BME280;69054;50.866;4.636;2023-12-20T03:01:14;101355.88;;;3.80;100.00
79586;BME280;69054;50.866;4.636;2023-12-20T03:03:40;101345.50;;;3.85;100.00
79586;BME280;69054;50.866;4.636;2023-12-20T03:06:05;101344.22;;;3.89;100.00
79586;BME280;69054;50.866;4.636;2023-12-20T03:08:31;101347.38;;;3.94;100.00
79586;BME280;69054;50.866;4.636;2023-12-20T03:10:56;101348.09;;;3.96;100.00
79586;BME280;69054;50.866;4.636;2023-12-20T03:13:21;101350.22;;;4.02;100.00
79586;BME280;69054;50.866;4.636;2023-12-20T03:15:47;101347.25;;;4.05;100.00
79586;BME280;69054;50.866;4.636;2023-12-20T03:18:12;101336.16;;;4.08;100.00
79586;BME280;69054;50.866;4.636;2023-12-20T03:20:38;101338.84;;;4.08;100.00
79586;BME280;69054;50.866;4.636;2023-12-20T03:23:03;101336.16;;;3.99;100.00
79586;BME280;69054;50.866;4.636;2023-12-20T03:25:29;101334.00;;;3.93;100.00
79586;BME280;69054;50.866;4.636;2023-12-20T03:27:55;101337.56;;;3.93;100.00
79586;BME280;69054;50.866;4.636;2023-12-20T03:30:20;101331.69;;;3.78;100.00
79586;BME280;69054;50.866;4.636;2023-12-20T03:32:46;101332.28;;;3.82;100.00
79586;BME280;69054;50.866;4.636;2023-12-20T03:35:12;101322.03;;;3.85;100.00
79586;BME280;69054;50.866;4.636;2023-12-20T03:37:37;101334.13;;;3.91;100.00
79586;BME280;69054;50.866;4.636;2023-12-20T03:40:03;101332.28;;;3.91;100.00
79586;BME280;69054;50.866;4.636;2023-12-20T03:42:29;101334.84;;;3.93;100.00
79586;BME280;69054;50.866;4.636;2023-12-20T03:44:54;101331.88;;;3.96;100.00
79586;BME280;69054;50.866;4.636;2023-12-20T03:47:19;101324.88;;;3.84;100.00
79586;BME280;69054;50.866;4.636;2023-12-20T03:49:45;101333.69;;;3.76;100.00
79586;BME280;69054;50.866;4.636;2023-12-20T03:52:10;101340.75;;;3.67;100.00
79586;BME280;69054;50.866;4.636;2023-12-20T03:54:36;101337.78;;;3.70;100.00
79586;BME280;69054;50.866;4.636;2023-12-20T03:57:01;101341.38;;;3.81;100.00
79586;BME280;69054;50.866;4.636;2023-12-20T03:59:27;101339.41;;;3.93;100.00
79586;BME280;69054;50.866;4.636;2023-12-20T04:01:52;101345.66;;;3.93;100.00
79586;BME280;69054;50.866;4.636;2023-12-20T04:04:18;101354.38;;;3.97;100.00
79586;BME280;69054;50.866;4.636;2023-12-20T04:06:44;101353.63;;;3.95;100.00
79586;BME280;69054;50.866;4.636;2023-12-20T04:09:09;101337.88;;;4.00;100.00
79586;BME280;69054;50.866;4.636;2023-12-20T04:11:35;101339.00;;;4.07;100.00
79586;BME280;69054;50.866;4.636;2023-12-20T04:14:01;101335.72;;;4.13;100.00
79586;BME280;69054;50.866;4.636;2023-12-20T04:16:26;101334.31;;;4.19;100.00
79586;BME280;69054;50.866;4.636;2023-12-20T04:18:52;101336.03;;;4.20;100.00
79586;BME280;69054;50.866;4.636;2023-12-20T04:21:17;101346.69;;;4.12;100.00
79586;BME280;69054;50.866;4.636;2023-12-20T04:23:43;101350.38;;;4.01;100.00
79586;BME280;69054;50.866;4.636;2023-12-20T04:26:09;101350.09;;;4.04;100.00
79586;BME280;69054;50.866;4.636;2023-12-20T04:28:34;101355.94;;;3.99;100.00
79586;BME280;69054;50.866;4.636;2023-12-20T04:31:00;101350.78;;;3.96;100.00
79586;BME280;69054;50.866;4.636;2023-12-20T04:33:25;101335.84;;;3.92;100.00
79586;BME280;69054;50.866;4.636;2023-12-20T04:35:50;101340.81;;;3.87;100.00
79586;BME280;69054;50.866;4.636;2023-12-20T04:38:16;101344.50;;;3.86;100.00
79586;BME280;69054;50.866;4.636;2023-12-20T04:40:42;101340.81;;;3.87;100.00
79586;BME280;69054;50.866;4.636;2023-12-20T04:43:07;101338.53;;;3.82;100.00
79586;BME280;69054;50.866;4.636;2023-12-20T04:45:36;101331.56;;;3.89;100.00
79586;BME280;69054;50.866;4.636;2023-12-20T04:48:02;101326.59;;;3.95;100.00
79586;BME280;69054;50.866;4.636;2023-12-20T04:50:28;101331.16;;;3.94;100.00
79586;BME280;69054;50.866;4.636;2023-12-20T04:52:53;101338.09;;;3.87;100.00
79586;BME280;69054;50.866;4.636;2023-12-20T04:55:19;101349.91;;;3.86;100.00
79586;BME280;69054;50.866;4.636;2023-12-20T04:57:45;101340.81;;;3.87;100.00
79586;BME280;69054;50.866;4.636;2023-12-20T05:00:11;101335.13;;;3.90;100.00
79586;BME280;69054;50.866;4.636;2023-12-20T05:02:37;101338.72;;;4.00;100.00
79586;BME280;69054;50.866;4.636;2023-12-20T05:05:03;101332.03;;;4.04;100.00
79586;BME280;69054;50.866;4.636;2023-12-20T05:07:28;101332.19;;;4.03;100.00
79586;BME280;69054;50.866;4.636;2023-12-20T05:09:53;101334.72;;;3.95;100.00
79586;BME280;69054;50.866;4.636;2023-12-20T05:12:19;101337.13;;;3.88;100.00
79586;BME280;69054;50.866;4.636;2023-12-20T05:14:46;101339.91;;;3.77;100.00
79586;BME280;69054;50.866;4.636;2023-12-20T05:17:11;101345.59;;;3.73;100.00
79586;BME280;69054;50.866;4.636;2023-12-20T05:19:37;101345.88;;;3.70;100.00
79586;BME280;69054;50.866;4.636;2023-12-20T05:22:03;101335.06;;;3.61;100.00
79586;BME280;69054;50.866;4.636;2023-12-20T05:24:29;101337.06;;;3.68;100.00
79586;BME280;69054;50.866;4.636;2023-12-20T05:26:54;101334.78;;;3.73;100.00
79586;BME280;69054;50.866;4.636;2023-12-20T05:29:20;101332.78;;;3.66;100.00
79586;BME280;69054;50.866;4.636;2023-12-20T05:31:46;101328.75;;;3.50;100.00
79586;BME280;69054;50.866;4.636;2023-12-20T05:34:11;101332.72;;;3.46;100.00
79586;BME280;69054;50.866;4.636;2023-12-20T05:36:37;101326.19;;;3.49;100.00
79586;BME280;69054;50.866;4.636;2023-12-20T05:39:04;101332.16;;;3.52;100.00
79586;BME280;69054;50.866;4.636;2023-12-20T05:41:30;101333.88;;;3.53;100.00
79586;BME280;69054;50.866;4.636;2023-12-20T05:43:56;101337.00;;;3.59;100.00
79586;BME280;69054;50.866;4.636;2023-12-20T05:46:23;101331.94;;;3.65;100.00
79586;BME280;69054;50.866;4.636;2023-12-20T05:48:49;101337.06;;;3.68;100.00
79586;BME280;69054;50.866;4.636;2023-12-20T05:51:14;101343.72;;;3.64;100.00
79586;BME280;69054;50.866;4.636;2023-12-20T05:53:40;101347.13;;;3.66;100.00
79586;BME280;69054;50.866;4.636;2023-12-20T05:56:05;101348.16;;;3.65;100.00
79586;BME280;69054;50.866;4.636;2023-12-20T05:58:32;101359.41;;;3.70;100.00
79586;BME280;69054;50.866;4.636;2023-12-20T06:00:58;101356.69;;;3.70;100.00
79586;BME280;69054;50.866;4.636;2023-12-20T06:03:23;101360.28;;;3.71;100.00
79586;BME280;69054;50.866;4.636;2023-12-20T06:05:49;101365.41;;;3.74;100.00
79586;BME280;69054;50.866;4.636;2023-12-20T06:08:14;101364.72;;;3.82;100.00
79586;BME280;69054;50.866;4.636;2023-12-20T06:10:40;101358.28;;;3.83;100.00
79586;BME280;69054;50.866;4.636;2023-12-20T06:13:05;101359.16;;;3.83;100.00
79586;BME280;69054;50.866;4.636;2023-12-20T06:15:32;101361.28;;;3.80;100.00
79586;BME280;69054;50.866;4.636;2023-12-20T06:17:58;101359.75;;;3.87;100.00
79586;BME280;69054;50.866;4.636;2023-12-20T06:20:23;101360.16;;;3.92;100.00
79586;BME280;69054;50.866;4.636;2023-12-20T06:22:49;101374.09;;;3.87;100.00
79586;BME280;69054;50.866;4.636;2023-12-20T06:25:15;101373.81;;;3.81;100.00
79586;BME280;69054;50.866;4.636;2023-12-20T06:27:40;101372.09;;;3.80;100.00
79586;BME280;69054;50.866;4.636;2023-12-20T06:30:07;101374.09;;;3.78;100.00
79586;BME280;69054;50.866;4.636;2023-12-20T06:32:34;101371.53;;;3.86;100.00
79586;BME280;69054;50.866;4.636;2023-12-20T06:35:01;101380.69;;;3.95;100.00
79586;BME280;69054;50.866;4.636;2023-12-20T06:37:26;101372.00;;;3.91;100.00
79586;BME280;69054;50.866;4.636;2023-12-20T06:39:51;101381.22;;;3.88;100.00
79586;BME280;69054;50.866;4.636;2023-12-20T06:42:17;101369.56;;;3.88;100.00
79586;BME280;69054;50.866;4.636;2023-12-20T06:44:42;101377.28;;;3.93;100.00
79586;BME280;69054;50.866;4.636;2023-12-20T06:47:08;101379.84;;;3.94;100.00
79586;BME280;69054;50.866;4.636;2023-12-20T06:49:33;101366.00;;;3.87;100.00
79586;BME280;69054;50.866;4.636;2023-12-20T06:51:59;101362.59;;;3.85;100.00
79586;BME280;69054;50.866;4.636;2023-12-20T06:54:24;101360.44;;;3.79;100.00
79586;BME280;69054;50.866;4.636;2023-12-20T06:56:49;101364.44;;;3.85;100.00
79586;BME280;69054;50.866;4.636;2023-12-20T06:59:15;101355.88;;;3.80;100.00
79586;BME280;69054;50.866;4.636;2023-12-20T07:01:41;101356.41;;;3.73;100.00
79586;BME280;69054;50.866;4.636;2023-12-20T07:04:06;101363.19;;;3.58;100.00
79586;BME280;69054;50.866;4.636;2023-12-20T07:06:32;101374.13;;;3.47;100.00
79586;BME280;69054;50.866;4.636;2023-12-20T07:08:57;101361.44;;;3.47;100.00
79586;BME280;69054;50.866;4.636;2023-12-20T07:11:23;101369.69;;;3.46;100.00
79586;BME280;69054;50.866;4.636;2023-12-20T07:13:48;101365.94;;;3.37;100.00
79586;BME280;69054;50.866;4.636;2023-12-20T07:16:14;101370.91;;;3.32;100.00
79586;BME280;69054;50.866;4.636;2023-12-20T07:18:40;101367.06;;;3.34;100.00
79586;BME280;69054;50.866;4.636;2023-12-20T07:21:05;101361.88;;;3.22;100.00
79586;BME280;69054;50.866;4.636;2023-12-20T07:23:33;101360.44;;;3.17;100.00
79586;BME280;69054;50.866;4.636;2023-12-20T07:25:58;101353.91;;;3.20;100.00
79586;BME280;69054;50.866;4.636;2023-12-20T07:28:24;101361.75;;;3.23;100.00
79586;BME280;69054;50.866;4.636;2023-12-20T07:30:50;101367.88;;;3.25;100.00
79586;BME280;69054;50.866;4.636;2023-12-20T07:33:15;101369.84;;;3.23;100.00
79586;BME280;69054;50.866;4.636;2023-12-20T07:35:41;101374.69;;;3.19;100.00
79586;BME280;69054;50.866;4.636;2023-12-20T07:38:06;101359.75;;;3.25;100.00
79586;BME280;69054;50.866;4.636;2023-12-20T07:40:32;101365.09;;;3.36;100.00
79586;BME280;69054;50.866;4.636;2023-12-20T07:42:57;101371.69;;;3.44;100.00
79586;BME280;69054;50.866;4.636;2023-12-20T07:45:23;101363.94;;;3.39;100.00
79586;BME280;69054;50.866;4.636;2023-12-20T07:47:48;101361.34;;;3.28;100.00
79586;BME280;69054;50.866;4.636;2023-12-20T07:50:15;101365.28;;;3.45;100.00
79586;BME280;69054;50.866;4.636;2023-12-20T07:52:41;101368.72;;;3.47;100.00
79586;BME280;69054;50.866;4.636;2023-12-20T07:55:06;101371.41;;;3.47;100.00
79586;BME280;69054;50.866;4.636;2023-12-20T07:57:32;101378.22;;;3.51;100.00
79586;BME280;69054;50.866;4.636;2023-12-20T07:59:57;101369.16;;;3.52;100.00
79586;BME280;69054;50.866;4.636;2023-12-20T08:02:23;101384.66;;;3.50;100.00
79586;BME280;69054;50.866;4.636;2023-12-20T08:04:48;101381.13;;;3.59;100.00
79586;BME280;69054;50.866;4.636;2023-12-20T08:07:14;101373.03;;;3.59;100.00
79586;BME280;69054;50.866;4.636;2023-12-20T08:09:39;101378.56;;;3.58;100.00
79586;BME280;69054;50.866;4.636;2023-12-20T08:12:05;101370.31;;;3.59;100.00
79586;BME280;69054;50.866;4.636;2023-12-20T08:14:30;101376.16;;;3.64;100.00
79586;BME280;69054;50.866;4.636;2023-12-20T08:16:56;101372.63;;;3.73;100.00
79586;BME280;69054;50.866;4.636;2023-12-20T08:19:22;101377.06;;;3.75;100.00
79586;BME280;69054;50.866;4.636;2023-12-20T08:21:48;101377.91;;;3.75;100.00
79586;BME280;69054;50.866;4.636;2023-12-20T08:24:13;101375.81;;;3.79;100.00
79586;BME280;69054;50.866;4.636;2023-12-20T08:26:39;101372.00;;;3.91;100.00
79586;BME280;69054;50.866;4.636;2023-12-20T08:29:04;101373.56;;;3.94;100.00
79586;BME280;69054;50.866;4.636;2023-12-20T08:31:29;101379.69;;;3.96;100.00
79586;BME280;69054;50.866;4.636;2023-12-20T08:33:55;101378.84;;;3.95;100.00
79586;BME280;69054;50.866;4.636;2023-12-20T08:36:20;101381.56;;;3.95;100.00
79586;BME280;69054;50.866;4.636;2023-12-20T08:38:49;101387.25;;;4.02;100.00
79586;BME280;69054;50.866;4.636;2023-12-20T08:41:16;101378.16;;;4.13;100.00
79586;BME280;69054;50.866;4.636;2023-12-20T08:43:42;101382.16;;;4.28;100.00
79586;BME280;69054;50.866;4.636;2023-12-20T08:46:08;101370.06;;;4.42;100.00
79586;BME280;69054;50.866;4.636;2023-12-20T08:48:37;101388.06;;;4.53;100.00
79586;BME280;69054;50.866;4.636;2023-12-20T08:51:03;101392.19;;;4.57;100.00
79586;BME280;69054;50.866;4.636;2023-12-20T08:53:28;101381.78;;;4.62;100.00
79586;BME280;69054;50.866;4.636;2023-12-20T08:55:54;101376.66;;;4.69;100.00
79586;BME280;69054;50.866;4.636;2023-12-20T08:58:19;101374.09;;;4.77;100.00
79586;BME280;69054;50.866;4.636;2023-12-20T09:00:45;101370.66;;;4.75;100.00
79586;BME280;69054;50.866;4.636;2023-12-20T09:03:10;101364.53;;;4.63;100.00
79586;BME280;69054;50.866;4.636;2023-12-20T09:05:36;101355.44;;;4.54;100.00
79586;BME280;69054;50.866;4.636;2023-12-20T09:08:01;101362.53;;;4.55;100.00
79586;BME280;69054;50.866;4.636;2023-12-20T09:10:27;101372.25;;;4.58;100.00
79586;BME280;69054;50.866;4.636;2023-12-20T09:12:53;101370.97;;;4.62;100.00
79586;BME280;69054;50.866;4.636;2023-12-20T09:15:26;101357.84;;;4.67;100.00
79586;BME280;69054;50.866;4.636;2023-12-20T09:17:52;101367.13;;;4.74;100.00
79586;BME280;69054;50.866;4.636;2023-12-20T09:20:18;101359.41;;;4.79;100.00
79586;BME280;69054;50.866;4.636;2023-12-20T09:22:43;101361.13;;;4.80;100.00
79586;BME280;69054;50.866;4.636;2023-12-20T09:25:10;101359.41;;;4.79;100.00
79586;BME280;69054;50.866;4.636;2023-12-20T09:27:36;101368.66;;;4.87;100.00
79586;BME280;69054;50.866;4.636;2023-12-20T09:30:02;101379.06;;;4.91;100.00
79586;BME280;69054;50.866;4.636;2023-12-20T09:32:28;101353.56;;;4.94;100.00
79586;BME280;69054;50.866;4.636;2023-12-20T09:34:54;101368.22;;;5.01;100.00
79586;BME280;69054;50.866;4.636;2023-12-20T09:37:20;101360.22;;;5.09;100.00
79586;BME280;69054;50.866;4.636;2023-12-20T09:39:45;101367.91;;;5.14;100.00
79586;BME280;69054;50.866;4.636;2023-12-20T09:42:11;101363.63;;;5.21;100.00
79586;BME280;69054;50.866;4.636;2023-12-20T09:44:42;101371.31;;;5.26;100.00
79586;BME280;69054;50.866;4.636;2023-12-20T09:47:09;101359.03;;;5.31;100.00
79586;BME280;69054;50.866;4.636;2023-12-20T09:49:36;101351.00;;;5.40;100.00
79586;BME280;69054;50.866;4.636;2023-12-20T09:52:04;101360.66;;;5.52;100.00
79586;BME280;69054;50.866;4.636;2023-12-20T09:54:31;101361.03;;;5.67;100.00
79586;BME280;69054;50.866;4.636;2023-12-20T09:56:57;101373.06;;;5.82;100.00
79586;BME280;69054;50.866;4.636;2023-12-20T09:59:22;101359.78;;;5.89;100.00
79586;BME280;69054;50.866;4.636;2023-12-20T10:01:48;101358.03;;;5.98;100.00
79586;BME280;69054;50.866;4.636;2023-12-20T10:04:15;101363.72;;;6.04;100.00
79586;BME280;69054;50.866;4.636;2023-12-20T10:06:42;101353.25;;;6.10;100.00
79586;BME280;69054;50.866;4.636;2023-12-20T10:09:12;101359.03;;;6.25;100.00
79586;BME280;69054;50.866;4.636;2023-12-20T10:11:38;101366.97;;;6.36;100.00
79586;BME280;69054;50.866;4.636;2023-12-20T10:14:07;101362.38;;;6.36;100.00
79586;BME280;69054;50.866;4.636;2023-12-20T10:16:33;101372.91;;;6.39;100.00
79586;BME280;69054;50.866;4.636;2023-12-20T10:19:00;101359.81;;;6.35;100.00
79586;BME280;69054;50.866;4.636;2023-12-20T10:21:29;101347.16;;;6.26;100.00
79586;BME280;69054;50.866;4.636;2023-12-20T10:23:56;101350.03;;;6.24;100.00
79586;BME280;69054;50.866;4.636;2023-12-20T10:26:23;101350.03;;;6.24;100.00
79586;BME280;69054;50.866;4.636;2023-12-20T10:28:53;101360.19;;;6.40;100.00
79586;BME280;69054;50.866;4.636;2023-12-20T10:31:30;101364.31;;;6.44;100.00
79586;BME280;69054;50.866;4.636;2023-12-20T10:33:57;101359.50;;;6.56;100.00
79586;BME280;69054;50.866;4.636;2023-12-20T10:36:24;101367.88;;;6.63;100.00
79586;BME280;69054;50.866;4.636;2023-12-20T10:38:52;101358.72;;;6.64;100.00
79586;BME280;69054;50.866;4.636;2023-12-20T10:44:03;101349.13;;;6.51;100.00
79586;BME280;69054;50.866;4.636;2023-12-20T10:46:30;101331.63;;;6.54;100.00
79586;BME280;69054;50.866;4.636;2023-12-20T10:48:58;101346.00;;;6.64;100.00
79586;BME280;69054;50.866;4.636;2023-12-20T10:51:24;101343.13;;;6.66;100.00
79586;BME280;69054;50.866;4.636;2023-12-20T10:53:53;101328.84;;;6.64;100.00
79586;BME280;69054;50.866;4.636;2023-12-20T10:56:19;101331.72;;;6.62;100.00
79586;BME280;69054;50.866;4.636;2023-12-20T10:58:46;101329.16;;;6.61;100.00
79586;BME280;69054;50.866;4.636;2023-12-20T11:01:13;101313.63;;;6.71;100.00
79586;BME280;69054;50.866;4.636;2023-12-20T11:03:52;101312.59;;;6.72;100.00
79586;BME280;69054;50.866;4.636;2023-12-20T11:09:08;101315.09;;;6.83;100.00
79586;BME280;69054;50.866;4.636;2023-12-20T11:14:46;101303.59;;;6.89;100.00
79586;BME280;69054;50.866;4.636;2023-12-20T11:17:18;101306.31;;;6.89;100.00
79586;BME280;69054;50.866;4.636;2023-12-20T11:22:22;101303.31;;;6.74;100.00
79586;BME280;69054;50.866;4.636;2023-12-20T11:24:48;101313.31;;;6.74;100.00
79586;BME280;69054;50.866;4.636;2023-12-20T11:27:15;101316.88;;;6.74;100.00
79586;BME280;69054;50.866;4.636;2023-12-20T11:29:41;101323.09;;;6.67;100.00
79586;BME280;69054;50.866;4.636;2023-12-20T11:34:59;101307.34;;;6.52;100.00
79586;BME280;69054;50.866;4.636;2023-12-20T11:37:32;101294.41;;;6.46;100.00
79586;BME280;69054;50.866;4.636;2023-12-20T11:40:06;101295.81;;;6.50;100.00
79586;BME280;69054;50.866;4.636;2023-12-20T11:42:43;101293.56;;;6.46;100.00
79586;BME280;69054;50.866;4.636;2023-12-20T11:45:17;101279.03;;;6.55;100.00
79586;BME280;69054;50.866;4.636;2023-12-20T11:47:46;101273.28;;;6.58;100.00
79586;BME280;69054;50.866;4.636;2023-12-20T11:50:12;101283.00;;;6.61;100.00
79586;BME280;69054;50.866;4.636;2023-12-20T11:52:38;101273.28;;;6.58;100.00
79586;BME280;69054;50.866;4.636;2023-12-20T11:55:04;101280.59;;;6.57;100.00
79586;BME280;69054;50.866;4.636;2023-12-20T11:57:30;101270.91;;;6.55;100.00
79586;BME280;69054;50.866;4.636;2023-12-20T11:59:56;101271.00;;;6.45;100.00
79586;BME280;69054;50.866;4.636;2023-12-20T12:02:22;101263.38;;;6.49;100.00
79586;BME280;69054;50.866;4.636;2023-12-20T12:04:49;101266.47;;;6.54;100.00
79586;BME280;69054;50.866;4.636;2023-12-20T12:07:16;101264.31;;;6.57;100.00
79586;BME280;69054;50.866;4.636;2023-12-20T12:09:42;101271.97;;;6.62;100.00
79586;BME280;69054;50.866;4.636;2023-12-20T12:12:08;101266.31;;;6.55;100.00
79586;BME280;69054;50.866;4.636;2023-12-20T12:14:34;101269.13;;;6.46;100.00
79586;BME280;69054;50.866;4.636;2023-12-20T12:17:02;101261.50;;;6.49;100.00
79586;BME280;69054;50.866;4.636;2023-12-20T12:19:28;101253.75;;;6.54;100.00
79586;BME280;69054;50.866;4.636;2023-12-20T12:22:14;101250.19;;;6.54;100.00
79586;BME280;69054;50.866;4.636;2023-12-20T12:24:43;101245.31;;;6.57;100.00
79586;BME280;69054;50.866;4.636;2023-12-20T12:27:10;101243.22;;;6.51;100.00
79586;BME280;69054;50.866;4.636;2023-12-20T12:29:36;101240.09;;;6.46;100.00
79586;BME280;69054;50.866;4.636;2023-12-20T12:32:09;101242.13;;;6.44;100.00
79586;BME280;69054;50.866;4.636;2023-12-20T12:34:35;101243.53;;;6.48;100.00
79586;BME280;69054;50.866;4.636;2023-12-20T12:37:02;101236.41;;;6.47;100.00
79586;BME280;69054;50.866;4.636;2023-12-20T12:39:29;101233.69;;;6.47;100.00
79586;BME280;69054;50.866;4.636;2023-12-20T12:41:55;101236.06;;;6.50;100.00
79586;BME280;69054;50.866;4.636;2023-12-20T12:44:20;101237.25;;;6.48;100.00
79586;BME280;69054;50.866;4.636;2023-12-20T12:46:49;101225.53;;;6.47;100.00
79586;BME280;69054;50.866;4.636;2023-12-20T12:49:21;101231.28;;;6.44;100.00
79586;BME280;69054;50.866;4.636;2023-12-20T12:51:47;101227.72;;;6.44;100.00
79586;BME280;69054;50.866;4.636;2023-12-20T12:54:13;101218.72;;;6.43;100.00
79586;BME280;69054;50.866;4.636;2023-12-20T12:56:41;101222.28;;;6.44;100.00
79586;BME280;69054;50.866;4.636;2023-12-20T12:59:06;101217.72;;;6.44;100.00